sensor_id;sensor_type;location;lat;lon;timestamp;temperature;humidity
5796;DHT22;2924;51.458;7.046;2023-02-28T00:01:10;-1.50;99.90
5796;DHT22;2924;51.458;7.046;2023-02-28T00:03:36;-1.40;99.90
5796;DHT22;2924;51.458;7.046;2023-02-28T00:06:08;-1.40;99.90
5796;DHT22;2924;51.458;7.046;2023-02-28T00:08:35;-1.30;99.90
5796;DHT22;2924;51.458;7.046;2023-02-28T00:11:07;-1.30;99.90
5796;DHT22;2924;51.458;7.046;2023-02-28T00:13:40;-1.20;99.90
5796;DHT22;2924;51.458;7.046;2023-02-28T00:16:11;-1.20;99.90
5796;DHT22;2924;51.458;7.046;2023-02-28T00:18:38;-1.10;99.90
5796;DHT22;2924;51.458;7.046;2023-02-28T00:21:04;-0.90;99.90
5796;DHT22;2924;51.458;7.046;2023-02-28T00:23:30;-0.70;99.90
5796;DHT22;2924;51.458;7.046;2023-02-28T00:25:56;-0.70;99.90
5796;DHT22;2924;51.458;7.046;2023-02-28T00:28:22;-0.70;99.90
5796;DHT22;2924;51.458;7.046;2023-02-28T00:30:48;-0.70;99.90
5796;DHT22;2924;51.458;7.046;2023-02-28T00:33:13;-0.70;99.90
5796;DHT22;2924;51.458;7.046;2023-02-28T00:35:39;-0.70;99.90
5796;DHT22;2924;51.458;7.046;2023-02-28T00:38:04;-0.90;99.90
5796;DHT22;2924;51.458;7.046;2023-02-28T00:40:31;-1.00;99.90
5796;DHT22;2924;51.458;7.046;2023-02-28T00:42:57;-1.00;99.90
5796;DHT22;2924;51.458;7.046;2023-02-28T00:45:22;-1.10;99.90
5796;DHT22;2924;51.458;7.046;2023-02-28T00:47:49;-1.30;99.90
5796;DHT22;2924;51.458;7.046;2023-02-28T00:50:19;-1.30;99.90
5796;DHT22;2924;51.458;7.046;2023-02-28T00:52:45;-1.30;99.90
5796;DHT22;2924;51.458;7.046;2023-02-28T00:55:11;-1.40;99.90
5796;DHT22;2924;51.458;7.046;2023-02-28T00:57:36;-1.40;99.90
5796;DHT22;2924;51.458;7.046;2023-02-28T01:00:03;-1.50;99.90
5796;DHT22;2924;51.458;7.046;2023-02-28T01:02:29;-1.70;99.90
5796;DHT22;2924;51.458;7.046;2023-02-28T01:04:55;-1.80;99.90
5796;DHT22;2924;51.458;7.046;2023-02-28T01:07:22;-1.80;99.90
5796;DHT22;2924;51.458;7.046;2023-02-28T01:09:48;-1.70;99.90
5796;DHT22;2924;51.458;7.046;2023-02-28T01:12:13;-1.70;99.90
5796;DHT22;2924;51.458;7.046;2023-02-28T01:14:39;-1.50;99.90
5796;DHT22;2924;51.458;7.046;2023-02-28T01:17:05;-1.60;99.90
5796;DHT22;2924;51.458;7.046;2023-02-28T01:19:30;-1.60;99.90
5796;DHT22;2924;51.458;7.046;2023-02-28T01:21:56;-1.60;99.90
5796;DHT22;2924;51.458;7.046;2023-02-28T01:24:22;-1.60;99.90
5796;DHT22;2924;51.458;7.046;2023-02-28T01:26:47;-1.60;99.90
5796;DHT22;2924;51.458;7.046;2023-02-28T01:29:13;-1.70;99.90
5796;DHT22;2924;51.458;7.046;2023-02-28T01:31:40;-1.60;99.90
5796;DHT22;2924;51.458;7.046;2023-02-28T01:34:05;-1.60;99.90
5796;DHT22;2924;51.458;7.046;2023-02-28T01:36:31;-1.70;99.90
5796;DHT22;2924;51.458;7.046;2023-02-28T01:38:57;-1.70;99.90
5796;DHT22;2924;51.458;7.046;2023-02-28T01:41:27;-1.70;99.90
5796;DHT22;2924;51.458;7.046;2023-02-28T01:43:56;-1.70;99.90
5796;DHT22;2924;51.458;7.046;2023-02-28T01:46:22;-1.70;99.90
5796;DHT22;2924;51.458;7.046;2023-02-28T01:48:53;-1.80;99.90
5796;DHT22;2924;51.458;7.046;2023-02-28T01:51:49;-1.80;99.90
5796;DHT22;2924;51.458;7.046;2023-02-28T01:54:22;-1.90;99.90
5796;DHT22;2924;51.458;7.046;2023-02-28T01:57:02;-2.10;99.90
5796;DHT22;2924;51.458;7.046;2023-02-28T01:59:42;-2.00;99.90
5796;DHT22;2924;51.458;7.046;2023-02-28T02:02:13;-2.10;99.90
5796;DHT22;2924;51.458;7.046;2023-02-28T02:07:33;-2.40;99.90
5796;DHT22;2924;51.458;7.046;2023-02-28T02:10:03;-2.50;99.90
5796;DHT22;2924;51.458;7.046;2023-02-28T02:24:13;-2.40;99.90
5796;DHT22;2924;51.458;7.046;2023-02-28T02:33:06;-2.40;99.90
5796;DHT22;2924;51.458;7.046;2023-02-28T02:35:40;-2.30;99.90
5796;DHT22;2924;51.458;7.046;2023-02-28T02:38:29;-2.30;99.90
5796;DHT22;2924;51.458;7.046;2023-02-28T02:41:40;-2.30;99.90
5796;DHT22;2924;51.458;7.046;2023-02-28T02:44:22;-2.30;99.90
5796;DHT22;2924;51.458;7.046;2023-02-28T02:46:51;-2.30;99.90
5796;DHT22;2924;51.458;7.046;2023-02-28T02:49:25;-2.40;99.90
5796;DHT22;2924;51.458;7.046;2023-02-28T02:51:53;-2.40;99.90
5796;DHT22;2924;51.458;7.046;2023-02-28T02:54:33;-2.50;99.90
5796;DHT22;2924;51.458;7.046;2023-02-28T02:57:07;-2.50;99.90
5796;DHT22;2924;51.458;7.046;2023-02-28T02:59:35;-2.40;99.90
5796;DHT22;2924;51.458;7.046;2023-02-28T03:02:04;-2.30;99.90
5796;DHT22;2924;51.458;7.046;2023-02-28T03:04:34;-2.20;99.90
5796;DHT22;2924;51.458;7.046;2023-02-28T03:07:03;-2.30;99.90
5796;DHT22;2924;51.458;7.046;2023-02-28T03:09:32;-2.30;99.90
5796;DHT22;2924;51.458;7.046;2023-02-28T03:11:58;-2.30;99.90
5796;DHT22;2924;51.458;7.046;2023-02-28T03:22:52;-2.80;99.90
5796;DHT22;2924;51.458;7.046;2023-02-28T03:28:29;-2.70;99.90
5796;DHT22;2924;51.458;7.046;2023-02-28T03:34:08;-2.60;99.90
5796;DHT22;2924;51.458;7.046;2023-02-28T03:36:41;-2.60;99.90
5796;DHT22;2924;51.458;7.046;2023-02-28T03:39:20;-2.70;99.90
5796;DHT22;2924;51.458;7.046;2023-02-28T03:41:55;-2.70;99.90
5796;DHT22;2924;51.458;7.046;2023-02-28T03:44:35;-2.80;99.90
5796;DHT22;2924;51.458;7.046;2023-02-28T03:47:12;-2.80;99.90
5796;DHT22;2924;51.458;7.046;2023-02-28T03:50:04;-2.80;99.90
5796;DHT22;2924;51.458;7.046;2023-02-28T03:52:36;-2.60;99.90
5796;DHT22;2924;51.458;7.046;2023-02-28T03:55:07;-2.50;99.90
5796;DHT22;2924;51.458;7.046;2023-02-28T03:57:43;-2.50;99.90
5796;DHT22;2924;51.458;7.046;2023-02-28T04:00:16;-2.50;99.90
5796;DHT22;2924;51.458;7.046;2023-02-28T04:02:44;-2.50;99.90
5796;DHT22;2924;51.458;7.046;2023-02-28T04:05:09;-2.40;99.90
5796;DHT22;2924;51.458;7.046;2023-02-28T04:07:35;-2.50;99.90
5796;DHT22;2924;51.458;7.046;2023-02-28T04:10:01;-2.60;99.90
5796;DHT22;2924;51.458;7.046;2023-02-28T04:12:26;-2.60;99.90
5796;DHT22;2924;51.458;7.046;2023-02-28T04:14:52;-2.70;99.90
5796;DHT22;2924;51.458;7.046;2023-02-28T04:17:18;-2.80;99.90
5796;DHT22;2924;51.458;7.046;2023-02-28T04:19:44;-2.90;99.90
5796;DHT22;2924;51.458;7.046;2023-02-28T04:22:10;-3.00;99.90
5796;DHT22;2924;51.458;7.046;2023-02-28T04:24:36;-3.00;99.90
5796;DHT22;2924;51.458;7.046;2023-02-28T04:27:02;-3.10;99.90
5796;DHT22;2924;51.458;7.046;2023-02-28T04:29:30;-3.00;99.90
5796;DHT22;2924;51.458;7.046;2023-02-28T04:31:58;-3.00;99.90
5796;DHT22;2924;51.458;7.046;2023-02-28T04:34:29;-3.00;99.90
5796;DHT22;2924;51.458;7.046;2023-02-28T04:36:55;-3.00;99.90
5796;DHT22;2924;51.458;7.046;2023-02-28T04:39:23;-3.00;99.90
5796;DHT22;2924;51.458;7.046;2023-02-28T04:41:49;-2.90;99.90
5796;DHT22;2924;51.458;7.046;2023-02-28T04:44:15;-2.80;99.90
5796;DHT22;2924;51.458;7.046;2023-02-28T04:46:41;-2.70;99.90
5796;DHT22;2924;51.458;7.046;2023-02-28T04:49:09;-2.80;99.90
5796;DHT22;2924;51.458;7.046;2023-02-28T04:51:36;-2.80;99.90
5796;DHT22;2924;51.458;7.046;2023-02-28T04:54:01;-2.80;99.90
5796;DHT22;2924;51.458;7.046;2023-02-28T04:56:27;-2.80;99.90
5796;DHT22;2924;51.458;7.046;2023-02-28T04:58:52;-2.70;99.90
5796;DHT22;2924;51.458;7.046;2023-02-28T05:01:22;-2.80;99.90
5796;DHT22;2924;51.458;7.046;2023-02-28T05:03:49;-2.80;99.90
5796;DHT22;2924;51.458;7.046;2023-02-28T05:06:15;-2.90;99.90
5796;DHT22;2924;51.458;7.046;2023-02-28T05:08:41;-2.90;99.90
5796;DHT22;2924;51.458;7.046;2023-02-28T05:11:14;-3.00;99.90
5796;DHT22;2924;51.458;7.046;2023-02-28T05:13:40;-3.00;99.90
5796;DHT22;2924;51.458;7.046;2023-02-28T05:16:06;-3.10;99.90
5796;DHT22;2924;51.458;7.046;2023-02-28T05:18:31;-3.00;99.90
5796;DHT22;2924;51.458;7.046;2023-02-28T05:20:57;-3.00;99.90
5796;DHT22;2924;51.458;7.046;2023-02-28T05:23:23;-2.90;99.90
5796;DHT22;2924;51.458;7.046;2023-02-28T05:25:49;-3.00;99.90
5796;DHT22;2924;51.458;7.046;2023-02-28T05:28:14;-2.90;99.90
5796;DHT22;2924;51.458;7.046;2023-02-28T05:30:40;-2.80;99.90
5796;DHT22;2924;51.458;7.046;2023-02-28T05:33:06;-2.90;99.90
5796;DHT22;2924;51.458;7.046;2023-02-28T05:35:32;-2.90;99.90
5796;DHT22;2924;51.458;7.046;2023-02-28T05:37:57;-2.90;99.90
5796;DHT22;2924;51.458;7.046;2023-02-28T05:40:23;-3.00;99.90
5796;DHT22;2924;51.458;7.046;2023-02-28T05:42:50;-3.00;99.90
5796;DHT22;2924;51.458;7.046;2023-02-28T05:45:16;-3.00;99.90
5796;DHT22;2924;51.458;7.046;2023-02-28T05:47:42;-3.00;99.90
5796;DHT22;2924;51.458;7.046;2023-02-28T05:50:08;-3.10;99.90
5796;DHT22;2924;51.458;7.046;2023-02-28T05:52:36;-3.20;99.90
5796;DHT22;2924;51.458;7.046;2023-02-28T05:55:02;-3.10;99.90
5796;DHT22;2924;51.458;7.046;2023-02-28T05:57:27;-3.10;99.90
5796;DHT22;2924;51.458;7.046;2023-02-28T05:59:53;-3.20;99.90
5796;DHT22;2924;51.458;7.046;2023-02-28T06:02:19;-3.20;99.90
5796;DHT22;2924;51.458;7.046;2023-02-28T06:04:45;-3.20;99.90
5796;DHT22;2924;51.458;7.046;2023-02-28T06:07:11;-3.20;99.90
5796;DHT22;2924;51.458;7.046;2023-02-28T06:09:37;-3.20;99.90
5796;DHT22;2924;51.458;7.046;2023-02-28T06:12:04;-3.30;99.90
5796;DHT22;2924;51.458;7.046;2023-02-28T06:14:32;-3.30;99.90
5796;DHT22;2924;51.458;7.046;2023-02-28T06:16:58;-3.30;99.90
5796;DHT22;2924;51.458;7.046;2023-02-28T06:19:24;-3.40;99.90
5796;DHT22;2924;51.458;7.046;2023-02-28T06:21:54;-3.40;99.90
5796;DHT22;2924;51.458;7.046;2023-02-28T06:24:21;-3.30;99.90
5796;DHT22;2924;51.458;7.046;2023-02-28T06:26:47;-3.20;99.90
5796;DHT22;2924;51.458;7.046;2023-02-28T06:29:13;-3.20;99.90
5796;DHT22;2924;51.458;7.046;2023-02-28T06:31:42;-3.20;99.90
5796;DHT22;2924;51.458;7.046;2023-02-28T06:34:09;-3.10;99.90
5796;DHT22;2924;51.458;7.046;2023-02-28T06:36:38;-3.10;99.90
5796;DHT22;2924;51.458;7.046;2023-02-28T06:39:04;-2.90;99.90
5796;DHT22;2924;51.458;7.046;2023-02-28T06:41:30;-2.90;99.90
5796;DHT22;2924;51.458;7.046;2023-02-28T06:43:55;-2.90;99.90
5796;DHT22;2924;51.458;7.046;2023-02-28T06:46:21;-2.90;99.90
5796;DHT22;2924;51.458;7.046;2023-02-28T06:48:47;-2.80;99.90
5796;DHT22;2924;51.458;7.046;2023-02-28T06:51:16;-2.50;99.90
5796;DHT22;2924;51.458;7.046;2023-02-28T06:53:42;-2.10;99.90
5796;DHT22;2924;51.458;7.046;2023-02-28T06:56:11;-1.70;99.90
5796;DHT22;2924;51.458;7.046;2023-02-28T06:58:37;-1.20;99.90
5796;DHT22;2924;51.458;7.046;2023-02-28T07:01:05;-0.90;99.90
5796;DHT22;2924;51.458;7.046;2023-02-28T07:03:31;-0.60;99.90
5796;DHT22;2924;51.458;7.046;2023-02-28T07:05:57;-0.10;99.90
5796;DHT22;2924;51.458;7.046;2023-02-28T07:08:24;0.20;99.90
5796;DHT22;2924;51.458;7.046;2023-02-28T07:10:54;0.40;99.90
5796;DHT22;2924;51.458;7.046;2023-02-28T07:13:20;0.90;99.90
5796;DHT22;2924;51.458;7.046;2023-02-28T07:15:57;1.40;99.90
5796;DHT22;2924;51.458;7.046;2023-02-28T07:18:23;1.70;99.90
5796;DHT22;2924;51.458;7.046;2023-02-28T07:20:49;1.90;99.90
5796;DHT22;2924;51.458;7.046;2023-02-28T07:23:15;2.00;99.90
5796;DHT22;2924;51.458;7.046;2023-02-28T07:25:40;1.90;99.90
5796;DHT22;2924;51.458;7.046;2023-02-28T07:28:06;2.20;99.90
5796;DHT22;2924;51.458;7.046;2023-02-28T07:30:32;2.20;99.90
5796;DHT22;2924;51.458;7.046;2023-02-28T07:32:57;2.20;99.90
5796;DHT22;2924;51.458;7.046;2023-02-28T07:35:23;2.00;99.90
5796;DHT22;2924;51.458;7.046;2023-02-28T07:37:49;2.40;99.90
5796;DHT22;2924;51.458;7.046;2023-02-28T07:40:15;3.00;99.90
5796;DHT22;2924;51.458;7.046;2023-02-28T07:42:41;3.10;99.90
5796;DHT22;2924;51.458;7.046;2023-02-28T07:45:08;3.40;99.90
5796;DHT22;2924;51.458;7.046;2023-02-28T07:47:40;4.00;99.90
5796;DHT22;2924;51.458;7.046;2023-02-28T07:50:09;4.10;99.90
5796;DHT22;2924;51.458;7.046;2023-02-28T07:52:37;4.30;99.90
5796;DHT22;2924;51.458;7.046;2023-02-28T07:55:03;4.70;99.90
5796;DHT22;2924;51.458;7.046;2023-02-28T07:57:30;3.90;99.90
5796;DHT22;2924;51.458;7.046;2023-02-28T07:59:55;4.30;99.90
5796;DHT22;2924;51.458;7.046;2023-02-28T08:02:21;4.50;99.90
5796;DHT22;2924;51.458;7.046;2023-02-28T08:04:46;5.10;99.90
5796;DHT22;2924;51.458;7.046;2023-02-28T08:07:13;5.60;99.90
5796;DHT22;2924;51.458;7.046;2023-02-28T08:09:40;4.40;99.90
5796;DHT22;2924;51.458;7.046;2023-02-28T08:12:09;2.10;99.90
5796;DHT22;2924;51.458;7.046;2023-02-28T08:14:35;1.30;99.90
5796;DHT22;2924;51.458;7.046;2023-02-28T08:17:01;0.80;99.90
5796;DHT22;2924;51.458;7.046;2023-02-28T08:19:27;0.70;99.90
5796;DHT22;2924;51.458;7.046;2023-02-28T08:21:54;0.90;99.90
5796;DHT22;2924;51.458;7.046;2023-02-28T08:24:20;0.60;99.90
5796;DHT22;2924;51.458;7.046;2023-02-28T08:26:46;0.50;99.90
5796;DHT22;2924;51.458;7.046;2023-02-28T08:29:11;0.80;99.90
5796;DHT22;2924;51.458;7.046;2023-02-28T08:31:37;1.20;99.90
5796;DHT22;2924;51.458;7.046;2023-02-28T08:34:07;1.40;99.90
5796;DHT22;2924;51.458;7.046;2023-02-28T08:36:34;1.90;99.90
5796;DHT22;2924;51.458;7.046;2023-02-28T08:38:59;2.80;99.90
5796;DHT22;2924;51.458;7.046;2023-02-28T08:41:26;3.60;99.90
5796;DHT22;2924;51.458;7.046;2023-02-28T08:43:52;4.70;99.90
5796;DHT22;2924;51.458;7.046;2023-02-28T08:46:18;5.70;99.90
5796;DHT22;2924;51.458;7.046;2023-02-28T08:48:44;6.60;99.90
5796;DHT22;2924;51.458;7.046;2023-02-28T08:51:17;7.30;98.60
5796;DHT22;2924;51.458;7.046;2023-02-28T08:53:46;7.70;97.80
5796;DHT22;2924;51.458;7.046;2023-02-28T08:56:15;8.40;97.00
5796;DHT22;2924;51.458;7.046;2023-02-28T08:58:42;8.80;94.90
5796;DHT22;2924;51.458;7.046;2023-02-28T09:01:26;8.70;94.20
5796;DHT22;2924;51.458;7.046;2023-02-28T09:03:53;8.90;94.00
5796;DHT22;2924;51.458;7.046;2023-02-28T09:06:20;7.20;94.40
5796;DHT22;2924;51.458;7.046;2023-02-28T09:08:46;7.10;95.70
5796;DHT22;2924;51.458;7.046;2023-02-28T09:11:12;6.50;94.60
5796;DHT22;2924;51.458;7.046;2023-02-28T09:13:39;5.80;96.50
5796;DHT22;2924;51.458;7.046;2023-02-28T09:16:07;6.20;96.70
5796;DHT22;2924;51.458;7.046;2023-02-28T09:18:37;7.10;95.60
5796;DHT22;2924;51.458;7.046;2023-02-28T09:21:14;6.80;94.30
5796;DHT22;2924;51.458;7.046;2023-02-28T09:23:42;6.40;95.50
5796;DHT22;2924;51.458;7.046;2023-02-28T09:26:19;6.20;94.50
5796;DHT22;2924;51.458;7.046;2023-02-28T09:28:45;5.80;94.70
5796;DHT22;2924;51.458;7.046;2023-02-28T09:31:14;5.40;95.20
5796;DHT22;2924;51.458;7.046;2023-02-28T09:33:40;6.30;95.40
5796;DHT22;2924;51.458;7.046;2023-02-28T09:36:06;7.40;93.90
5796;DHT22;2924;51.458;7.046;2023-02-28T09:38:31;8.10;92.50
5796;DHT22;2924;51.458;7.046;2023-02-28T09:41:00;8.60;92.30
5796;DHT22;2924;51.458;7.046;2023-02-28T09:43:32;8.90;91.70
5796;DHT22;2924;51.458;7.046;2023-02-28T09:48:35;8.10;91.20
5796;DHT22;2924;51.458;7.046;2023-02-28T09:53:38;6.30;92.50
5796;DHT22;2924;51.458;7.046;2023-02-28T09:56:11;7.00;92.00
5796;DHT22;2924;51.458;7.046;2023-02-28T10:04:56;7.70;90.60
5796;DHT22;2924;51.458;7.046;2023-02-28T10:13:00;5.80;91.40
5796;DHT22;2924;51.458;7.046;2023-02-28T10:15:29;6.10;91.70
5796;DHT22;2924;51.458;7.046;2023-02-28T10:18:00;6.30;91.30
5796;DHT22;2924;51.458;7.046;2023-02-28T10:20:28;6.10;91.20
5796;DHT22;2924;51.458;7.046;2023-02-28T10:23:11;6.00;91.90
5796;DHT22;2924;51.458;7.046;2023-02-28T10:25:38;5.80;92.30
5796;DHT22;2924;51.458;7.046;2023-02-28T10:30:34;6.30;92.20
5796;DHT22;2924;51.458;7.046;2023-02-28T10:33:00;6.40;91.50
5796;DHT22;2924;51.458;7.046;2023-02-28T10:35:26;5.70;91.50
5796;DHT22;2924;51.458;7.046;2023-02-28T10:37:57;5.40;92.20
5796;DHT22;2924;51.458;7.046;2023-02-28T10:45:25;5.10;92.50
5796;DHT22;2924;51.458;7.046;2023-02-28T10:48:04;4.40;92.50
5796;DHT22;2924;51.458;7.046;2023-02-28T10:50:36;4.60;93.30
5796;DHT22;2924;51.458;7.046;2023-02-28T10:56:25;4.50;92.10
5796;DHT22;2924;51.458;7.046;2023-02-28T10:59:11;4.50;92.10
5796;DHT22;2924;51.458;7.046;2023-02-28T11:01:47;4.30;92.10
5796;DHT22;2924;51.458;7.046;2023-02-28T11:04:20;4.30;91.90
5796;DHT22;2924;51.458;7.046;2023-02-28T11:07:19;4.40;92.50
5796;DHT22;2924;51.458;7.046;2023-02-28T11:09:51;4.40;92.00
5796;DHT22;2924;51.458;7.046;2023-02-28T11:12:26;4.80;91.80
5796;DHT22;2924;51.458;7.046;2023-02-28T11:15:02;5.00;91.20
5796;DHT22;2924;51.458;7.046;2023-02-28T11:17:31;5.20;91.00
5796;DHT22;2924;51.458;7.046;2023-02-28T11:20:10;5.40;91.20
5796;DHT22;2924;51.458;7.046;2023-02-28T11:22:46;5.60;91.30
5796;DHT22;2924;51.458;7.046;2023-02-28T11:25:24;5.90;90.30
5796;DHT22;2924;51.458;7.046;2023-02-28T11:27:59;4.90;91.40
5796;DHT22;2924;51.458;7.046;2023-02-28T11:30:35;5.00;91.40
5796;DHT22;2924;51.458;7.046;2023-02-28T11:33:31;5.50;91.00
5796;DHT22;2924;51.458;7.046;2023-02-28T11:36:04;5.50;90.80
5796;DHT22;2924;51.458;7.046;2023-02-28T11:38:36;5.50;91.00
5796;DHT22;2924;51.458;7.046;2023-02-28T11:46:52;5.30;91.30
5796;DHT22;2924;51.458;7.046;2023-02-28T11:49:30;5.00;91.90
5796;DHT22;2924;51.458;7.046;2023-02-28T11:56:59;5.40;91.40
5796;DHT22;2924;51.458;7.046;2023-02-28T12:10:22;5.70;91.80
5796;DHT22;2924;51.458;7.046;2023-02-28T12:13:04;6.20;91.40
5796;DHT22;2924;51.458;7.046;2023-02-28T12:29:23;5.50;91.20
5796;DHT22;2924;51.458;7.046;2023-02-28T12:31:59;5.30;91.40
5796;DHT22;2924;51.458;7.046;2023-02-28T12:34:33;4.80;91.70
5796;DHT22;2924;51.458;7.046;2023-02-28T12:37:06;4.70;92.60
5796;DHT22;2924;51.458;7.046;2023-02-28T12:39:38;4.90;92.40
5796;DHT22;2924;51.458;7.046;2023-02-28T12:42:13;4.70;92.80
5796;DHT22;2924;51.458;7.046;2023-02-28T12:45:08;5.00;92.50
5796;DHT22;2924;51.458;7.046;2023-02-28T12:47:38;5.50;91.70
5796;DHT22;2924;51.458;7.046;2023-02-28T12:50:08;5.40;91.60
5796;DHT22;2924;51.458;7.046;2023-02-28T12:53:02;5.20;92.30
5796;DHT22;2924;51.458;7.046;2023-02-28T12:55:50;5.40;92.30
5796;DHT22;2924;51.458;7.046;2023-02-28T12:58:27;5.30;92.00
5796;DHT22;2924;51.458;7.046;2023-02-28T13:01:22;5.30;91.90
5796;DHT22;2924;51.458;7.046;2023-02-28T13:06:49;5.40;91.90
5796;DHT22;2924;51.458;7.046;2023-02-28T13:09:20;5.20;92.70
5796;DHT22;2924;51.458;7.046;2023-02-28T13:11:51;5.30;93.10
5796;DHT22;2924;51.458;7.046;2023-02-28T13:17:40;5.70;93.00
5796;DHT22;2924;51.458;7.046;2023-02-28T13:22:43;6.20;92.10
5796;DHT22;2924;51.458;7.046;2023-02-28T13:28:09;5.90;92.30
5796;DHT22;2924;51.458;7.046;2023-02-28T13:38:52;6.00;93.20
5796;DHT22;2924;51.458;7.046;2023-02-28T13:44:09;6.30;93.10
5796;DHT22;2924;51.458;7.046;2023-02-28T13:54:33;6.70;93.60
5796;DHT22;2924;51.458;7.046;2023-02-28T14:07:44;5.70;94.50
5796;DHT22;2924;51.458;7.046;2023-02-28T14:10:22;5.90;94.50
5796;DHT22;2924;51.458;7.046;2023-02-28T14:18:33;6.50;93.80
5796;DHT22;2924;51.458;7.046;2023-02-28T14:29:24;6.20;94.30
5796;DHT22;2924;51.458;7.046;2023-02-28T14:32:06;5.90;93.90
5796;DHT22;2924;51.458;7.046;2023-02-28T14:37:15;5.70;95.50
5796;DHT22;2924;51.458;7.046;2023-02-28T14:39:43;6.20;94.70
5796;DHT22;2924;51.458;7.046;2023-02-28T14:42:48;6.00;94.60
5796;DHT22;2924;51.458;7.046;2023-02-28T14:45:21;5.80;95.20
5796;DHT22;2924;51.458;7.046;2023-02-28T14:47:49;6.00;95.10
5796;DHT22;2924;51.458;7.046;2023-02-28T14:50:21;5.60;95.40
5796;DHT22;2924;51.458;7.046;2023-02-28T14:52:50;5.90;95.40
5796;DHT22;2924;51.458;7.046;2023-02-28T14:55:27;5.60;95.60
5796;DHT22;2924;51.458;7.046;2023-02-28T14:58:02;5.40;95.80
5796;DHT22;2924;51.458;7.046;2023-02-28T15:00:48;5.10;96.00
5796;DHT22;2924;51.458;7.046;2023-02-28T15:03:23;5.20;96.80
5796;DHT22;2924;51.458;7.046;2023-02-28T15:06:24;5.40;96.20
5796;DHT22;2924;51.458;7.046;2023-02-28T15:09:11;5.70;96.30
5796;DHT22;2924;51.458;7.046;2023-02-28T15:11:39;6.10;95.90
5796;DHT22;2924;51.458;7.046;2023-02-28T15:14:05;6.50;95.70
5796;DHT22;2924;51.458;7.046;2023-02-28T15:16:37;6.40;95.20
5796;DHT22;2924;51.458;7.046;2023-02-28T15:19:11;5.40;95.30
5796;DHT22;2924;51.458;7.046;2023-02-28T15:21:42;5.10;96.20
5796;DHT22;2924;51.458;7.046;2023-02-28T15:27:03;5.00;96.40
5796;DHT22;2924;51.458;7.046;2023-02-28T15:29:34;5.00;96.20
5796;DHT22;2924;51.458;7.046;2023-02-28T15:32:05;4.80;96.80
5796;DHT22;2924;51.458;7.046;2023-02-28T15:37:00;4.90;96.80
5796;DHT22;2924;51.458;7.046;2023-02-28T15:39:27;4.90;97.40
5796;DHT22;2924;51.458;7.046;2023-02-28T15:42:13;4.80;97.90
5796;DHT22;2924;51.458;7.046;2023-02-28T15:44:42;4.80;97.70
5796;DHT22;2924;51.458;7.046;2023-02-28T15:47:17;4.80;98.30
5796;DHT22;2924;51.458;7.046;2023-02-28T15:52:42;4.70;98.80
5796;DHT22;2924;51.458;7.046;2023-02-28T15:55:16;4.80;98.90
5796;DHT22;2924;51.458;7.046;2023-02-28T15:57:44;5.00;99.00
5796;DHT22;2924;51.458;7.046;2023-02-28T16:00:14;5.00;99.10
5796;DHT22;2924;51.458;7.046;2023-02-28T16:02:40;4.90;99.90
5796;DHT22;2924;51.458;7.046;2023-02-28T16:07:33;4.90;99.50
5796;DHT22;2924;51.458;7.046;2023-02-28T16:10:00;4.70;99.50
5796;DHT22;2924;51.458;7.046;2023-02-28T16:12:29;4.30;99.90
5796;DHT22;2924;51.458;7.046;2023-02-28T16:14:57;4.20;99.90
5796;DHT22;2924;51.458;7.046;2023-02-28T16:17:26;4.30;99.90
5796;DHT22;2924;51.458;7.046;2023-02-28T16:19:53;4.50;99.90
5796;DHT22;2924;51.458;7.046;2023-02-28T16:22:19;4.70;99.90
5796;DHT22;2924;51.458;7.046;2023-02-28T16:24:44;4.30;99.90
5796;DHT22;2924;51.458;7.046;2023-02-28T16:27:36;4.10;99.90
5796;DHT22;2924;51.458;7.046;2023-02-28T16:30:04;3.90;99.90
5796;DHT22;2924;51.458;7.046;2023-02-28T16:32:31;3.80;99.90
5796;DHT22;2924;51.458;7.046;2023-02-28T16:35:00;3.70;99.90
5796;DHT22;2924;51.458;7.046;2023-02-28T16:37:27;3.60;99.90
5796;DHT22;2924;51.458;7.046;2023-02-28T16:39:52;3.40;99.90
5796;DHT22;2924;51.458;7.046;2023-02-28T16:42:23;3.40;99.90
5796;DHT22;2924;51.458;7.046;2023-02-28T16:44:50;3.40;99.90
5796;DHT22;2924;51.458;7.046;2023-02-28T16:47:17;3.30;99.90
5796;DHT22;2924;51.458;7.046;2023-02-28T16:49:43;3.30;99.90
5796;DHT22;2924;51.458;7.046;2023-02-28T16:52:10;3.20;99.90
5796;DHT22;2924;51.458;7.046;2023-02-28T16:54:37;3.20;99.90
5796;DHT22;2924;51.458;7.046;2023-02-28T16:57:04;3.20;99.90
5796;DHT22;2924;51.458;7.046;2023-02-28T16:59:30;3.20;99.90
5796;DHT22;2924;51.458;7.046;2023-02-28T17:01:56;3.10;99.90
5796;DHT22;2924;51.458;7.046;2023-02-28T17:04:28;3.10;99.90
5796;DHT22;2924;51.458;7.046;2023-02-28T17:06:53;3.00;99.90
5796;DHT22;2924;51.458;7.046;2023-02-28T17:09:21;3.00;99.90
5796;DHT22;2924;51.458;7.046;2023-02-28T17:11:48;2.80;99.90
5796;DHT22;2924;51.458;7.046;2023-02-28T17:14:14;2.80;99.90
5796;DHT22;2924;51.458;7.046;2023-02-28T17:16:40;2.70;99.90
5796;DHT22;2924;51.458;7.046;2023-02-28T17:19:09;2.70;99.90
5796;DHT22;2924;51.458;7.046;2023-02-28T17:21:36;2.60;99.90
5796;DHT22;2924;51.458;7.046;2023-02-28T17:24:02;2.60;99.90
5796;DHT22;2924;51.458;7.046;2023-02-28T17:26:28;2.60;99.90
5796;DHT22;2924;51.458;7.046;2023-02-28T17:28:56;2.50;99.90
5796;DHT22;2924;51.458;7.046;2023-02-28T17:31:25;2.40;99.90
5796;DHT22;2924;51.458;7.046;2023-02-28T17:33:52;2.40;99.90
5796;DHT22;2924;51.458;7.046;2023-02-28T17:36:23;2.30;99.90
5796;DHT22;2924;51.458;7.046;2023-02-28T17:38:51;2.10;99.90
5796;DHT22;2924;51.458;7.046;2023-02-28T17:41:17;2.10;99.90
5796;DHT22;2924;51.458;7.046;2023-02-28T17:43:42;2.10;99.90
5796;DHT22;2924;51.458;7.046;2023-02-28T17:46:17;2.00;99.90
5796;DHT22;2924;51.458;7.046;2023-02-28T17:48:44;2.00;99.90
5796;DHT22;2924;51.458;7.046;2023-02-28T17:51:12;2.00;99.90
5796;DHT22;2924;51.458;7.046;2023-02-28T17:53:39;2.00;99.90
5796;DHT22;2924;51.458;7.046;2023-02-28T17:56:09;2.00;99.90
5796;DHT22;2924;51.458;7.046;2023-02-28T17:58:36;1.90;99.90
5796;DHT22;2924;51.458;7.046;2023-02-28T18:01:01;1.80;99.90
5796;DHT22;2924;51.458;7.046;2023-02-28T18:03:27;1.80;99.90
5796;DHT22;2924;51.458;7.046;2023-02-28T18:05:53;1.80;99.90
5796;DHT22;2924;51.458;7.046;2023-02-28T18:08:19;1.60;99.90
5796;DHT22;2924;51.458;7.046;2023-02-28T18:10:45;1.50;99.90
5796;DHT22;2924;51.458;7.046;2023-02-28T18:13:11;1.70;99.90
5796;DHT22;2924;51.458;7.046;2023-02-28T18:15:38;1.80;99.90
5796;DHT22;2924;51.458;7.046;2023-02-28T18:18:04;1.60;99.90
5796;DHT22;2924;51.458;7.046;2023-02-28T18:20:32;1.50;99.90
5796;DHT22;2924;51.458;7.046;2023-02-28T18:22:58;1.40;99.90
5796;DHT22;2924;51.458;7.046;2023-02-28T18:25:24;1.30;99.90
5796;DHT22;2924;51.458;7.046;2023-02-28T18:27:50;1.40;99.90
5796;DHT22;2924;51.458;7.046;2023-02-28T18:30:29;1.50;99.90
5796;DHT22;2924;51.458;7.046;2023-02-28T18:32:57;1.50;99.90
5796;DHT22;2924;51.458;7.046;2023-02-28T18:35:24;1.40;99.90
5796;DHT22;2924;51.458;7.046;2023-02-28T18:38:01;1.30;99.90
5796;DHT22;2924;51.458;7.046;2023-02-28T18:40:26;1.20;99.90
5796;DHT22;2924;51.458;7.046;2023-02-28T18:42:52;1.10;99.90
5796;DHT22;2924;51.458;7.046;2023-02-28T18:45:17;0.90;99.90
5796;DHT22;2924;51.458;7.046;2023-02-28T18:47:43;0.80;99.90
5796;DHT22;2924;51.458;7.046;2023-02-28T18:50:09;0.90;99.90
5796;DHT22;2924;51.458;7.046;2023-02-28T18:52:35;0.90;99.90
5796;DHT22;2924;51.458;7.046;2023-02-28T18:55:01;0.90;99.90
5796;DHT22;2924;51.458;7.046;2023-02-28T18:57:27;1.00;99.90
5796;DHT22;2924;51.458;7.046;2023-02-28T18:59:53;1.00;99.90
5796;DHT22;2924;51.458;7.046;2023-02-28T19:02:18;0.80;99.90
5796;DHT22;2924;51.458;7.046;2023-02-28T19:04:44;0.70;99.90
5796;DHT22;2924;51.458;7.046;2023-02-28T19:07:10;0.50;99.90
5796;DHT22;2924;51.458;7.046;2023-02-28T19:09:36;0.60;99.90
5796;DHT22;2924;51.458;7.046;2023-02-28T19:12:02;0.60;99.90
5796;DHT22;2924;51.458;7.046;2023-02-28T19:14:27;0.40;99.90